createdAt,value
2019-03-31T00:03:50.870Z,26.97
2019-03-31T00:08:54.628Z,27.95
2019-03-31T00:13:58.467Z,26.17
2019-03-31T00:19:02.653Z,27.30
2019-03-31T00:24:06.361Z,27.40
2019-03-31T00:29:09.981Z,26.70
2019-03-31T00:34:13.600Z,26.25
2019-03-31T00:39:17.223Z,26.42
2019-03-31T00:44:21.645Z,25.17
2019-03-31T00:49:25.290Z,24.47
2019-03-31T00:54:28.903Z,26.30
2019-03-31T00:59:32.733Z,24.82
2019-03-31T01:04:36.287Z,24.45
2019-03-31T01:09:39.964Z,24.50
2019-03-31T01:14:43.579Z,29.00
2019-03-31T01:19:47.198Z,24.23
2019-03-31T01:24:50.817Z,25.08
2019-03-31T01:29:54.443Z,25.97
2019-03-31T01:34:58.072Z,29.12
2019-03-31T01:40:01.680Z,25.27
2019-03-31T01:45:07.037Z,24.27
2019-03-31T01:50:12.067Z,23.33
2019-03-31T01:55:15.719Z,23.27
2019-03-31T02:00:30.190Z,24.43
2019-03-31T02:05:33.826Z,24.70
2019-03-31T02:10:37.535Z,23.42
2019-03-31T02:15:41.149Z,22.13
2019-03-31T02:20:44.764Z,19.50
2019-03-31T02:25:48.383Z,22.45
2019-03-31T02:30:51.933Z,21.73
2019-03-31T02:35:55.626Z,21.37
2019-03-31T02:40:59.252Z,22.80
2019-03-31T02:46:02.883Z,21.65
2019-03-31T02:51:06.587Z,23.00
2019-03-31T02:56:10.208Z,23.55
2019-03-31T03:01:13.828Z,26.80
2019-03-31T03:06:17.443Z,26.13
2019-03-31T03:11:21.277Z,24.47
2019-03-31T03:16:24.889Z,26.17
2019-03-31T03:21:28.445Z,23.38
2019-03-31T03:26:31.988Z,23.47
2019-03-31T03:31:35.649Z,25.27
2019-03-31T03:36:43.013Z,24.37
2019-03-31T03:41:44.527Z,24.37
2019-03-31T03:46:48.142Z,25.70
2019-03-31T03:51:51.755Z,26.55
2019-03-31T03:56:55.374Z,25.75
2019-03-31T04:01:59.009Z,23.05
2019-03-31T04:07:02.621Z,23.25
2019-03-31T04:12:06.190Z,21.37
2019-03-31T04:17:09.748Z,32.30
2019-03-31T04:22:13.356Z,24.30
2019-03-31T04:27:19.152Z,30.37
2019-03-31T04:32:22.195Z,26.95
2019-03-31T04:37:25.748Z,25.88
2019-03-31T04:42:29.356Z,25.50
2019-03-31T04:47:32.909Z,25.57
2019-03-31T04:52:36.973Z,19.17
2019-03-31T04:57:40.497Z,22.85
2019-03-31T05:02:44.091Z,22.57
2019-03-31T05:07:47.618Z,24.75
2019-03-31T05:12:51.211Z,26.45
2019-03-31T05:17:54.764Z,22.95
2019-03-31T05:22:58.345Z,23.65
2019-03-31T05:28:01.874Z,25.45
2019-03-31T05:33:05.449Z,25.92
2019-03-31T05:38:09.007Z,23.58
2019-03-31T05:43:12.588Z,25.35
2019-03-31T05:48:16.136Z,25.63
2019-03-31T05:53:19.709Z,23.77
2019-03-31T05:58:23.267Z,24.02
2019-03-31T06:03:26.833Z,28.60
2019-03-31T06:08:30.361Z,24.70
2019-03-31T06:13:34.031Z,25.70
2019-03-31T06:18:37.559Z,25.05
2019-03-31T06:23:41.130Z,24.72
2019-03-31T06:28:44.708Z,23.07
2019-03-31T06:33:48.260Z,25.23
2019-03-31T06:38:51.833Z,21.97
2019-03-31T06:43:55.412Z,24.45
2019-03-31T06:48:59.017Z,20.20
2019-03-31T06:54:02.570Z,20.27
2019-03-31T06:59:06.148Z,34.18
2019-03-31T07:04:09.705Z,21.85
2019-03-31T07:09:13.273Z,21.87
2019-03-31T07:14:16.849Z,19.82
2019-03-31T07:19:20.460Z,20.88
2019-03-31T07:24:24.083Z,18.52
2019-03-31T07:29:27.704Z,18.05
2019-03-31T07:34:31.286Z,16.93
2019-03-31T07:39:35.225Z,15.75
2019-03-31T07:44:39.084Z,18.73
2019-03-31T07:49:42.688Z,14.87
2019-03-31T07:54:46.216Z,13.75
2019-03-31T07:59:49.832Z,16.23
2019-03-31T08:04:53.343Z,14.45
2019-03-31T08:09:56.963Z,12.90
2019-03-31T08:15:00.590Z,15.40
2019-03-31T08:20:09.885Z,14.12
2019-03-31T08:30:17.487Z,13.53
2019-03-31T08:35:21.015Z,12.73
2019-03-31T08:40:24.728Z,12.10
2019-03-31T08:45:30.455Z,12.13
2019-03-31T08:50:34.950Z,14.75
2019-03-31T08:55:38.762Z,12.35
2019-03-31T09:00:43.914Z,11.45
2019-03-31T09:06:00.569Z,10.15
2019-03-31T09:10:52.891Z,13.72
2019-03-31T09:15:56.832Z,11.75
2019-03-31T09:21:00.432Z,11.93
2019-03-31T09:26:05.081Z,11.88
2019-03-31T09:31:08.702Z,10.55
2019-03-31T09:36:16.389Z,12.40
2019-03-31T09:41:17.681Z,13.47
2019-03-31T09:46:21.323Z,11.45
2019-03-31T09:51:24.863Z,12.05
2019-03-31T09:56:28.431Z,11.38
2019-03-31T10:01:32.381Z,11.03
2019-03-31T10:06:38.203Z,10.50
2019-03-31T10:11:41.858Z,11.95
2019-03-31T10:16:45.576Z,10.78
2019-03-31T10:21:48.303Z,10.72
2019-03-31T10:26:53.583Z,11.38
2019-03-31T10:31:57.460Z,11.93
2019-03-31T10:37:01.127Z,10.53
2019-03-31T10:42:05.214Z,10.13
2019-03-31T10:47:09.298Z,10.38
2019-03-31T10:52:12.962Z,10.68
2019-03-31T10:57:16.988Z,11.93
2019-03-31T11:02:20.965Z,11.85
2019-03-31T11:07:24.639Z,14.38
2019-03-31T11:12:28.379Z,10.85
2019-03-31T11:17:31.926Z,11.70
2019-03-31T11:22:55.571Z,11.20
2019-03-31T11:27:59.187Z,10.50
2019-03-31T11:33:02.800Z,10.43
2019-03-31T11:38:06.427Z,11.83
2019-03-31T11:43:10.043Z,11.40
2019-03-31T11:48:13.565Z,9.45
2019-03-31T11:53:17.291Z,12.70
2019-03-31T11:58:20.903Z,9.35
2019-03-31T12:03:24.524Z,11.70
2019-03-31T12:08:28.470Z,8.93
2019-03-31T12:13:32.177Z,9.58
2019-03-31T12:18:35.787Z,8.48
2019-03-31T12:23:39.915Z,8.68
2019-03-31T12:28:43.584Z,11.22
2019-03-31T12:33:47.259Z,8.88
2019-03-31T12:38:53.675Z,8.78
2019-03-31T12:43:56.177Z,11.70
2019-03-31T12:48:59.967Z,11.95
2019-03-31T12:54:03.530Z,8.40
2019-03-31T12:59:07.198Z,9.08
2019-03-31T13:04:10.819Z,8.53
2019-03-31T13:09:14.434Z,9.93
2019-03-31T13:14:17.956Z,8.48
2019-03-31T13:19:21.532Z,11.03
2019-03-31T13:24:25.094Z,8.57
2019-03-31T13:29:28.713Z,8.88
2019-03-31T13:34:32.288Z,8.98
2019-03-31T13:39:35.813Z,9.10
2019-03-31T13:44:39.396Z,8.65
2019-03-31T13:49:42.905Z,8.55
2019-03-31T13:54:46.501Z,8.63
2019-03-31T13:59:50.109Z,9.68
2019-03-31T14:04:53.945Z,7.37
2019-03-31T14:09:57.873Z,6.95
2019-03-31T14:15:01.642Z,7.50
2019-03-31T14:20:07.779Z,6.20
2019-03-31T14:25:11.393Z,6.93
2019-03-31T14:30:15.123Z,9.73
2019-03-31T14:35:18.652Z,7.58
2019-03-31T14:40:22.257Z,8.93
2019-03-31T14:45:30.655Z,11.08
2019-03-31T14:50:35.511Z,8.97
2019-03-31T14:55:39.155Z,8.55
2019-03-31T15:01:00.795Z,12.68
2019-03-31T15:06:04.826Z,9.08
2019-03-31T15:11:08.344Z,7.25
2019-03-31T15:16:12.065Z,7.22
2019-03-31T15:21:15.601Z,13.37
2019-03-31T15:26:19.446Z,7.30
2019-03-31T15:31:23.023Z,7.00
2019-03-31T15:36:26.649Z,9.58
2019-03-31T15:41:30.299Z,6.15
2019-03-31T15:46:33.988Z,6.67
2019-03-31T15:51:37.609Z,7.87
2019-03-31T15:56:41.222Z,5.47
2019-03-31T16:01:44.758Z,5.78
2019-03-31T16:06:48.467Z,6.97
2019-03-31T16:11:53.900Z,8.13
2019-03-31T16:16:57.319Z,6.92
2019-03-31T16:22:00.957Z,5.75
2019-03-31T16:27:04.890Z,5.95
2019-03-31T16:32:08.516Z,5.95
2019-03-31T16:37:12.124Z,9.87
2019-03-31T16:42:15.740Z,7.67
2019-03-31T16:47:19.368Z,6.33
2019-03-31T16:52:22.984Z,7.50
2019-03-31T16:57:26.603Z,5.70
2019-03-31T17:02:30.224Z,6.00
2019-03-31T17:07:33.790Z,7.83
2019-03-31T17:12:37.312Z,8.23
2019-03-31T17:17:40.885Z,26.42
2019-03-31T17:22:44.427Z,36.90
2019-03-31T17:27:48.046Z,14.90
2019-03-31T17:32:51.618Z,27.50
2019-03-31T17:37:55.213Z,20.20
2019-03-31T17:42:58.747Z,21.93
2019-03-31T17:48:02.325Z,32.95
2019-03-31T17:53:06.120Z,38.15
2019-03-31T17:58:09.712Z,46.55
2019-03-31T18:03:15.604Z,77.72
2019-03-31T18:08:18.719Z,22.70
2019-03-31T18:13:22.330Z,20.95
2019-03-31T18:18:25.944Z,17.87
2019-03-31T18:23:29.767Z,17.45
2019-03-31T18:28:33.394Z,16.07
2019-03-31T18:33:37.013Z,14.55
2019-03-31T18:38:40.817Z,15.72
2019-03-31T18:43:51.135Z,16.42
2019-03-31T18:48:50.047Z,13.45
2019-03-31T18:53:55.176Z,13.95
2019-03-31T18:59:00.427Z,13.55
2019-03-31T19:04:22.234Z,14.28
2019-03-31T19:09:27.429Z,12.33
2019-03-31T19:14:35.563Z,15.97
2019-03-31T19:19:56.826Z,17.53
2019-03-31T19:25:04.815Z,17.17
2019-03-31T19:30:15.933Z,14.67
2019-03-31T19:35:21.163Z,16.23
2019-03-31T19:40:27.349Z,15.60
2019-03-31T19:45:32.883Z,13.28
2019-03-31T19:50:54.791Z,13.15
2019-03-31T19:56:07.761Z,10.53
2019-03-31T20:01:18.610Z,12.70
2019-03-31T20:06:24.081Z,10.83
2019-03-31T20:11:29.241Z,10.80
2019-03-31T20:16:37.349Z,10.37
2019-03-31T20:21:45.188Z,13.07
2019-03-31T20:26:50.376Z,16.75
2019-03-31T20:31:55.507Z,14.73
2019-03-31T20:37:19.147Z,12.03
2019-03-31T20:42:36.323Z,17.97
2019-03-31T20:47:39.859Z,15.90
2019-03-31T20:52:43.419Z,14.53
2019-03-31T20:57:47.017Z,13.55
2019-03-31T21:02:50.662Z,13.60
2019-03-31T21:07:54.290Z,11.57
2019-03-31T21:12:57.831Z,12.85
2019-03-31T21:18:01.522Z,11.97
2019-03-31T21:23:05.341Z,13.65
2019-03-31T21:28:08.958Z,12.70
2019-03-31T21:33:12.584Z,11.83
2019-03-31T21:38:16.128Z,12.60
2019-03-31T21:43:19.722Z,14.40
2019-03-31T21:48:23.334Z,13.53
2019-03-31T21:53:26.957Z,15.70
2019-03-31T21:58:30.576Z,14.35
2019-03-31T22:03:34.189Z,10.70
2019-03-31T22:08:37.764Z,12.95
2019-03-31T22:13:41.334Z,11.05
2019-03-31T22:18:44.953Z,10.20
2019-03-31T22:23:57.727Z,9.73
2019-03-31T22:28:53.933Z,10.03
2019-03-31T22:33:57.631Z,10.30
2019-03-31T22:39:01.272Z,11.35
2019-03-31T22:44:04.993Z,11.25
2019-03-31T22:49:08.629Z,10.68
2019-03-31T22:54:12.227Z,9.10
2019-03-31T22:59:15.854Z,10.45
2019-03-31T23:04:19.401Z,10.55
2019-03-31T23:09:22.963Z,8.78
2019-03-31T23:14:26.495Z,9.75
2019-03-31T23:19:30.126Z,9.75
2019-03-31T23:24:33.745Z,8.13
2019-03-31T23:29:37.365Z,7.97
2019-03-31T23:34:40.984Z,8.63
2019-03-31T23:39:44.634Z,7.85
2019-03-31T23:44:48.327Z,7.53
2019-03-31T23:49:51.944Z,8.17
2019-03-31T23:54:55.569Z,8.45
2019-03-31T23:59:59.183Z,7.97
